sensor_id;sensor_type;location;lat;lon;timestamp;P1;durP1;ratioP1;P2;durP2;ratioP2
5674;SDS011;2860;54.284;10.158;2023-05-29T00:01:20;7.88;;;2.60;;
5674;SDS011;2860;54.284;10.158;2023-05-29T00:03:46;8.20;;;2.45;;
5674;SDS011;2860;54.284;10.158;2023-05-29T00:06:12;10.40;;;2.50;;
5674;SDS011;2860;54.284;10.158;2023-05-29T00:08:38;16.00;;;2.63;;
5674;SDS011;2860;54.284;10.158;2023-05-29T00:11:04;6.50;;;3.17;;
5674;SDS011;2860;54.284;10.158;2023-05-29T00:13:29;14.98;;;2.78;;
5674;SDS011;2860;54.284;10.158;2023-05-29T00:15:55;8.32;;;2.38;;
5674;SDS011;2860;54.284;10.158;2023-05-29T00:18:21;17.50;;;2.95;;
5674;SDS011;2860;54.284;10.158;2023-05-29T00:20:47;9.75;;;2.85;;
5674;SDS011;2860;54.284;10.158;2023-05-29T00:23:12;18.75;;;2.60;;
5674;SDS011;2860;54.284;10.158;2023-05-29T00:25:38;7.32;;;1.65;;
5674;SDS011;2860;54.284;10.158;2023-05-29T00:28:05;8.63;;;2.45;;
5674;SDS011;2860;54.284;10.158;2023-05-29T00:30:32;15.45;;;3.17;;
5674;SDS011;2860;54.284;10.158;2023-05-29T00:32:57;10.50;;;2.80;;
5674;SDS011;2860;54.284;10.158;2023-05-29T00:35:23;8.70;;;2.13;;
5674;SDS011;2860;54.284;10.158;2023-05-29T00:37:49;12.35;;;2.40;;
5674;SDS011;2860;54.284;10.158;2023-05-29T00:40:14;15.68;;;2.53;;
5674;SDS011;2860;54.284;10.158;2023-05-29T00:42:40;10.98;;;2.75;;
5674;SDS011;2860;54.284;10.158;2023-05-29T00:45:06;15.05;;;4.65;;
5674;SDS011;2860;54.284;10.158;2023-05-29T00:47:33;13.27;;;2.92;;
5674;SDS011;2860;54.284;10.158;2023-05-29T00:49:58;9.80;;;3.38;;
5674;SDS011;2860;54.284;10.158;2023-05-29T00:52:24;6.50;;;2.25;;
5674;SDS011;2860;54.284;10.158;2023-05-29T00:54:51;7.82;;;2.45;;
5674;SDS011;2860;54.284;10.158;2023-05-29T00:57:17;12.77;;;3.22;;
5674;SDS011;2860;54.284;10.158;2023-05-29T00:59:43;12.70;;;2.63;;
5674;SDS011;2860;54.284;10.158;2023-05-29T01:02:10;11.00;;;3.20;;
5674;SDS011;2860;54.284;10.158;2023-05-29T01:04:36;20.30;;;3.28;;
5674;SDS011;2860;54.284;10.158;2023-05-29T01:07:03;12.02;;;2.92;;
5674;SDS011;2860;54.284;10.158;2023-05-29T01:09:29;9.98;;;3.05;;
5674;SDS011;2860;54.284;10.158;2023-05-29T01:12:01;13.90;;;3.10;;
5674;SDS011;2860;54.284;10.158;2023-05-29T01:17:06;13.15;;;3.17;;
5674;SDS011;2860;54.284;10.158;2023-05-29T01:19:57;19.65;;;3.60;;
5674;SDS011;2860;54.284;10.158;2023-05-29T01:25:29;12.95;;;4.22;;
5674;SDS011;2860;54.284;10.158;2023-05-29T01:28:00;16.20;;;3.60;;
5674;SDS011;2860;54.284;10.158;2023-05-29T01:30:29;12.93;;;3.40;;
5674;SDS011;2860;54.284;10.158;2023-05-29T01:32:57;9.00;;;2.58;;
5674;SDS011;2860;54.284;10.158;2023-05-29T01:35:23;9.85;;;2.60;;
5674;SDS011;2860;54.284;10.158;2023-05-29T01:37:50;11.25;;;2.53;;
5674;SDS011;2860;54.284;10.158;2023-05-29T01:40:15;11.43;;;3.22;;
5674;SDS011;2860;54.284;10.158;2023-05-29T01:42:41;15.35;;;3.15;;
5674;SDS011;2860;54.284;10.158;2023-05-29T01:45:07;6.13;;;2.13;;
5674;SDS011;2860;54.284;10.158;2023-05-29T01:47:34;20.75;;;2.92;;
5674;SDS011;2860;54.284;10.158;2023-05-29T01:50:00;10.13;;;3.40;;
5674;SDS011;2860;54.284;10.158;2023-05-29T01:52:29;12.90;;;3.03;;
5674;SDS011;2860;54.284;10.158;2023-05-29T01:54:55;18.70;;;3.67;;
5674;SDS011;2860;54.284;10.158;2023-05-29T01:57:20;10.35;;;3.20;;
5674;SDS011;2860;54.284;10.158;2023-05-29T01:59:46;14.75;;;3.20;;
5674;SDS011;2860;54.284;10.158;2023-05-29T02:02:12;8.00;;;2.28;;
5674;SDS011;2860;54.284;10.158;2023-05-29T02:04:39;13.50;;;3.88;;
5674;SDS011;2860;54.284;10.158;2023-05-29T02:07:04;13.90;;;3.13;;
5674;SDS011;2860;54.284;10.158;2023-05-29T02:09:31;13.90;;;3.38;;
5674;SDS011;2860;54.284;10.158;2023-05-29T02:11:56;10.20;;;2.75;;
5674;SDS011;2860;54.284;10.158;2023-05-29T02:14:22;16.15;;;3.45;;
5674;SDS011;2860;54.284;10.158;2023-05-29T02:16:49;12.20;;;3.20;;
5674;SDS011;2860;54.284;10.158;2023-05-29T02:19:16;8.50;;;3.10;;
5674;SDS011;2860;54.284;10.158;2023-05-29T02:21:43;17.42;;;2.80;;
5674;SDS011;2860;54.284;10.158;2023-05-29T02:24:09;11.68;;;3.13;;
5674;SDS011;2860;54.284;10.158;2023-05-29T02:26:34;13.25;;;2.90;;
5674;SDS011;2860;54.284;10.158;2023-05-29T02:29:03;13.52;;;2.28;;
5674;SDS011;2860;54.284;10.158;2023-05-29T02:31:30;19.73;;;2.88;;
5674;SDS011;2860;54.284;10.158;2023-05-29T02:33:56;9.35;;;3.60;;
5674;SDS011;2860;54.284;10.158;2023-05-29T02:36:21;25.38;;;4.05;;
5674;SDS011;2860;54.284;10.158;2023-05-29T02:38:47;10.35;;;2.88;;
5674;SDS011;2860;54.284;10.158;2023-05-29T02:41:12;22.90;;;3.53;;
5674;SDS011;2860;54.284;10.158;2023-05-29T02:43:38;5.57;;;2.67;;
5674;SDS011;2860;54.284;10.158;2023-05-29T02:46:03;13.05;;;3.72;;
5674;SDS011;2860;54.284;10.158;2023-05-29T02:48:29;15.60;;;3.78;;
5674;SDS011;2860;54.284;10.158;2023-05-29T02:50:55;14.73;;;3.35;;
5674;SDS011;2860;54.284;10.158;2023-05-29T02:53:20;13.65;;;5.15;;
5674;SDS011;2860;54.284;10.158;2023-05-29T02:55:46;12.02;;;3.53;;
5674;SDS011;2860;54.284;10.158;2023-05-29T02:58:12;15.55;;;3.65;;
5674;SDS011;2860;54.284;10.158;2023-05-29T03:00:37;7.18;;;3.22;;
5674;SDS011;2860;54.284;10.158;2023-05-29T03:03:03;11.55;;;2.65;;
5674;SDS011;2860;54.284;10.158;2023-05-29T03:05:29;14.00;;;2.95;;
5674;SDS011;2860;54.284;10.158;2023-05-29T03:07:55;12.05;;;3.83;;
5674;SDS011;2860;54.284;10.158;2023-05-29T03:10:21;16.15;;;3.40;;
5674;SDS011;2860;54.284;10.158;2023-05-29T03:12:47;13.52;;;3.33;;
5674;SDS011;2860;54.284;10.158;2023-05-29T03:15:12;16.52;;;3.45;;
5674;SDS011;2860;54.284;10.158;2023-05-29T03:17:38;14.43;;;3.67;;
5674;SDS011;2860;54.284;10.158;2023-05-29T03:20:04;25.73;;;3.53;;
5674;SDS011;2860;54.284;10.158;2023-05-29T03:22:33;18.55;;;5.10;;
5674;SDS011;2860;54.284;10.158;2023-05-29T03:25:00;14.00;;;3.45;;
5674;SDS011;2860;54.284;10.158;2023-05-29T03:27:26;17.45;;;4.15;;
5674;SDS011;2860;54.284;10.158;2023-05-29T03:29:52;15.35;;;3.22;;
5674;SDS011;2860;54.284;10.158;2023-05-29T03:32:18;9.43;;;2.90;;
5674;SDS011;2860;54.284;10.158;2023-05-29T03:34:43;14.15;;;3.78;;
5674;SDS011;2860;54.284;10.158;2023-05-29T03:37:09;15.35;;;3.40;;
5674;SDS011;2860;54.284;10.158;2023-05-29T03:39:35;8.02;;;2.80;;
5674;SDS011;2860;54.284;10.158;2023-05-29T03:42:00;14.98;;;3.20;;
5674;SDS011;2860;54.284;10.158;2023-05-29T03:44:27;11.63;;;2.75;;
5674;SDS011;2860;54.284;10.158;2023-05-29T03:46:53;13.27;;;3.03;;
5674;SDS011;2860;54.284;10.158;2023-05-29T03:49:19;13.73;;;2.70;;
5674;SDS011;2860;54.284;10.158;2023-05-29T03:51:44;9.27;;;3.08;;
5674;SDS011;2860;54.284;10.158;2023-05-29T03:54:10;17.38;;;3.47;;
5674;SDS011;2860;54.284;10.158;2023-05-29T03:56:35;17.38;;;3.70;;
5674;SDS011;2860;54.284;10.158;2023-05-29T03:59:01;17.00;;;4.40;;
5674;SDS011;2860;54.284;10.158;2023-05-29T04:01:27;20.08;;;3.53;;
5674;SDS011;2860;54.284;10.158;2023-05-29T04:03:53;21.60;;;3.95;;
5674;SDS011;2860;54.284;10.158;2023-05-29T04:06:18;21.98;;;5.18;;
5674;SDS011;2860;54.284;10.158;2023-05-29T04:08:44;4.82;;;2.58;;
5674;SDS011;2860;54.284;10.158;2023-05-29T04:11:09;13.57;;;3.95;;
5674;SDS011;2860;54.284;10.158;2023-05-29T04:13:36;10.15;;;3.03;;
5674;SDS011;2860;54.284;10.158;2023-05-29T04:16:02;11.60;;;2.97;;
5674;SDS011;2860;54.284;10.158;2023-05-29T04:18:28;14.27;;;3.30;;
5674;SDS011;2860;54.284;10.158;2023-05-29T04:20:54;9.70;;;3.22;;
5674;SDS011;2860;54.284;10.158;2023-05-29T04:23:19;8.38;;;2.63;;
5674;SDS011;2860;54.284;10.158;2023-05-29T04:25:45;13.65;;;3.30;;
5674;SDS011;2860;54.284;10.158;2023-05-29T04:28:11;11.80;;;3.40;;
5674;SDS011;2860;54.284;10.158;2023-05-29T04:30:37;16.95;;;4.32;;
5674;SDS011;2860;54.284;10.158;2023-05-29T04:33:04;12.60;;;3.35;;
5674;SDS011;2860;54.284;10.158;2023-05-29T04:35:29;18.55;;;3.00;;
5674;SDS011;2860;54.284;10.158;2023-05-29T04:37:55;14.35;;;4.40;;
5674;SDS011;2860;54.284;10.158;2023-05-29T04:40:21;12.00;;;3.53;;
5674;SDS011;2860;54.284;10.158;2023-05-29T04:42:47;17.25;;;4.55;;
5674;SDS011;2860;54.284;10.158;2023-05-29T04:45:12;22.17;;;3.47;;
5674;SDS011;2860;54.284;10.158;2023-05-29T04:47:38;14.65;;;4.15;;
5674;SDS011;2860;54.284;10.158;2023-05-29T04:50:11;19.50;;;3.92;;
5674;SDS011;2860;54.284;10.158;2023-05-29T04:52:39;26.60;;;3.78;;
5674;SDS011;2860;54.284;10.158;2023-05-29T04:55:05;21.48;;;5.50;;
5674;SDS011;2860;54.284;10.158;2023-05-29T04:57:31;18.77;;;4.50;;
5674;SDS011;2860;54.284;10.158;2023-05-29T04:59:57;21.23;;;4.57;;
5674;SDS011;2860;54.284;10.158;2023-05-29T05:02:22;11.77;;;2.72;;
5674;SDS011;2860;54.284;10.158;2023-05-29T05:04:48;14.18;;;3.00;;
5674;SDS011;2860;54.284;10.158;2023-05-29T05:07:13;14.32;;;2.45;;
5674;SDS011;2860;54.284;10.158;2023-05-29T05:09:40;12.75;;;2.40;;
5674;SDS011;2860;54.284;10.158;2023-05-29T05:12:06;18.08;;;3.17;;
5674;SDS011;2860;54.284;10.158;2023-05-29T05:14:32;14.27;;;3.17;;
5674;SDS011;2860;54.284;10.158;2023-05-29T05:16:57;14.15;;;3.80;;
5674;SDS011;2860;54.284;10.158;2023-05-29T05:19:23;13.48;;;3.00;;
5674;SDS011;2860;54.284;10.158;2023-05-29T05:21:48;21.35;;;3.60;;
5674;SDS011;2860;54.284;10.158;2023-05-29T05:24:14;11.95;;;2.92;;
5674;SDS011;2860;54.284;10.158;2023-05-29T05:26:40;15.40;;;3.47;;
5674;SDS011;2860;54.284;10.158;2023-05-29T05:29:05;9.15;;;2.83;;
5674;SDS011;2860;54.284;10.158;2023-05-29T05:31:31;17.95;;;2.88;;
5674;SDS011;2860;54.284;10.158;2023-05-29T05:33:56;17.85;;;3.55;;
5674;SDS011;2860;54.284;10.158;2023-05-29T05:36:22;10.48;;;3.15;;
5674;SDS011;2860;54.284;10.158;2023-05-29T05:38:48;11.77;;;2.35;;
5674;SDS011;2860;54.284;10.158;2023-05-29T05:41:14;9.40;;;2.88;;
5674;SDS011;2860;54.284;10.158;2023-05-29T05:43:39;10.35;;;3.03;;
5674;SDS011;2860;54.284;10.158;2023-05-29T05:46:05;13.65;;;2.53;;
5674;SDS011;2860;54.284;10.158;2023-05-29T05:48:30;12.00;;;2.88;;
5674;SDS011;2860;54.284;10.158;2023-05-29T05:50:56;17.08;;;3.10;;
5674;SDS011;2860;54.284;10.158;2023-05-29T05:53:21;11.43;;;3.30;;
5674;SDS011;2860;54.284;10.158;2023-05-29T05:55:47;13.00;;;2.50;;
5674;SDS011;2860;54.284;10.158;2023-05-29T05:58:12;12.27;;;3.08;;
5674;SDS011;2860;54.284;10.158;2023-05-29T06:00:39;15.68;;;3.45;;
5674;SDS011;2860;54.284;10.158;2023-05-29T06:03:04;12.32;;;3.03;;
5674;SDS011;2860;54.284;10.158;2023-05-29T06:05:30;13.45;;;2.95;;
5674;SDS011;2860;54.284;10.158;2023-05-29T06:07:55;14.07;;;2.88;;
5674;SDS011;2860;54.284;10.158;2023-05-29T06:10:21;17.45;;;4.40;;
5674;SDS011;2860;54.284;10.158;2023-05-29T06:12:47;11.82;;;2.88;;
5674;SDS011;2860;54.284;10.158;2023-05-29T06:15:12;14.48;;;2.50;;
5674;SDS011;2860;54.284;10.158;2023-05-29T06:17:38;12.60;;;3.20;;
5674;SDS011;2860;54.284;10.158;2023-05-29T06:20:04;15.02;;;2.90;;
5674;SDS011;2860;54.284;10.158;2023-05-29T06:22:35;14.60;;;3.40;;
5674;SDS011;2860;54.284;10.158;2023-05-29T06:25:01;14.85;;;2.95;;
5674;SDS011;2860;54.284;10.158;2023-05-29T06:27:26;18.13;;;3.47;;
5674;SDS011;2860;54.284;10.158;2023-05-29T06:29:52;14.50;;;3.03;;
5674;SDS011;2860;54.284;10.158;2023-05-29T06:32:17;12.93;;;2.92;;
5674;SDS011;2860;54.284;10.158;2023-05-29T06:34:43;10.90;;;3.20;;
5674;SDS011;2860;54.284;10.158;2023-05-29T06:37:08;22.35;;;3.67;;
5674;SDS011;2860;54.284;10.158;2023-05-29T06:39:34;12.50;;;3.60;;
5674;SDS011;2860;54.284;10.158;2023-05-29T06:42:00;11.77;;;3.38;;
5674;SDS011;2860;54.284;10.158;2023-05-29T06:44:26;15.80;;;3.72;;
5674;SDS011;2860;54.284;10.158;2023-05-29T06:46:52;12.38;;;3.78;;
5674;SDS011;2860;54.284;10.158;2023-05-29T06:49:17;17.85;;;3.75;;
5674;SDS011;2860;54.284;10.158;2023-05-29T06:51:43;10.43;;;2.63;;
5674;SDS011;2860;54.284;10.158;2023-05-29T06:54:09;13.75;;;2.72;;
5674;SDS011;2860;54.284;10.158;2023-05-29T06:56:35;10.32;;;3.15;;
5674;SDS011;2860;54.284;10.158;2023-05-29T06:59:01;14.88;;;3.03;;
5674;SDS011;2860;54.284;10.158;2023-05-29T07:01:26;15.35;;;3.05;;
5674;SDS011;2860;54.284;10.158;2023-05-29T07:03:52;16.10;;;3.53;;
5674;SDS011;2860;54.284;10.158;2023-05-29T07:06:18;12.35;;;3.22;;
5674;SDS011;2860;54.284;10.158;2023-05-29T07:08:44;14.32;;;2.58;;
5674;SDS011;2860;54.284;10.158;2023-05-29T07:11:09;18.70;;;3.80;;
5674;SDS011;2860;54.284;10.158;2023-05-29T07:13:35;10.25;;;3.40;;
5674;SDS011;2860;54.284;10.158;2023-05-29T07:16:01;19.23;;;3.50;;
5674;SDS011;2860;54.284;10.158;2023-05-29T07:18:26;19.48;;;4.10;;
5674;SDS011;2860;54.284;10.158;2023-05-29T07:20:52;15.00;;;2.80;;
5674;SDS011;2860;54.284;10.158;2023-05-29T07:23:18;11.60;;;3.90;;
5674;SDS011;2860;54.284;10.158;2023-05-29T07:25:44;13.82;;;3.22;;
5674;SDS011;2860;54.284;10.158;2023-05-29T07:28:09;14.30;;;3.47;;
5674;SDS011;2860;54.284;10.158;2023-05-29T07:30:35;16.52;;;3.70;;
5674;SDS011;2860;54.284;10.158;2023-05-29T07:33:00;22.35;;;3.63;;
5674;SDS011;2860;54.284;10.158;2023-05-29T07:35:26;17.50;;;4.15;;
5674;SDS011;2860;54.284;10.158;2023-05-29T07:37:51;12.05;;;2.70;;
5674;SDS011;2860;54.284;10.158;2023-05-29T07:40:19;14.38;;;3.08;;
5674;SDS011;2860;54.284;10.158;2023-05-29T07:42:44;12.90;;;1.98;;
5674;SDS011;2860;54.284;10.158;2023-05-29T07:45:10;12.73;;;2.72;;
5674;SDS011;2860;54.284;10.158;2023-05-29T07:47:36;14.98;;;3.25;;
5674;SDS011;2860;54.284;10.158;2023-05-29T07:50:01;10.82;;;3.55;;
5674;SDS011;2860;54.284;10.158;2023-05-29T07:52:27;15.93;;;3.33;;
5674;SDS011;2860;54.284;10.158;2023-05-29T07:54:53;16.88;;;3.08;;
5674;SDS011;2860;54.284;10.158;2023-05-29T07:57:18;8.27;;;2.42;;
5674;SDS011;2860;54.284;10.158;2023-05-29T07:59:44;10.80;;;3.42;;
5674;SDS011;2860;54.284;10.158;2023-05-29T08:02:10;11.63;;;2.88;;
5674;SDS011;2860;54.284;10.158;2023-05-29T08:04:35;4.63;;;2.10;;
5674;SDS011;2860;54.284;10.158;2023-05-29T08:07:02;8.00;;;2.78;;
5674;SDS011;2860;54.284;10.158;2023-05-29T08:09:30;12.48;;;3.10;;
5674;SDS011;2860;54.284;10.158;2023-05-29T08:11:56;10.68;;;2.35;;
5674;SDS011;2860;54.284;10.158;2023-05-29T08:14:21;8.70;;;2.30;;
5674;SDS011;2860;54.284;10.158;2023-05-29T08:16:47;4.70;;;2.10;;
5674;SDS011;2860;54.284;10.158;2023-05-29T08:19:13;5.93;;;2.63;;
5674;SDS011;2860;54.284;10.158;2023-05-29T08:21:38;13.38;;;2.83;;
5674;SDS011;2860;54.284;10.158;2023-05-29T08:24:04;12.32;;;2.60;;
5674;SDS011;2860;54.284;10.158;2023-05-29T08:26:30;7.43;;;1.63;;
5674;SDS011;2860;54.284;10.158;2023-05-29T08:28:56;12.23;;;2.67;;
5674;SDS011;2860;54.284;10.158;2023-05-29T08:31:22;10.43;;;2.30;;
5674;SDS011;2860;54.284;10.158;2023-05-29T08:33:50;14.35;;;2.90;;
5674;SDS011;2860;54.284;10.158;2023-05-29T08:36:16;16.73;;;2.60;;
5674;SDS011;2860;54.284;10.158;2023-05-29T08:38:42;7.22;;;2.42;;
5674;SDS011;2860;54.284;10.158;2023-05-29T08:41:08;9.55;;;2.38;;
5674;SDS011;2860;54.284;10.158;2023-05-29T08:43:51;10.80;;;2.65;;
5674;SDS011;2860;54.284;10.158;2023-05-29T08:46:18;7.85;;;2.50;;
5674;SDS011;2860;54.284;10.158;2023-05-29T08:48:47;5.68;;;1.92;;
5674;SDS011;2860;54.284;10.158;2023-05-29T08:51:14;10.30;;;2.33;;
5674;SDS011;2860;54.284;10.158;2023-05-29T08:53:45;10.30;;;2.03;;
5674;SDS011;2860;54.284;10.158;2023-05-29T08:56:11;8.13;;;2.17;;
5674;SDS011;2860;54.284;10.158;2023-05-29T08:58:37;7.07;;;1.83;;
5674;SDS011;2860;54.284;10.158;2023-05-29T09:01:03;6.00;;;2.25;;
5674;SDS011;2860;54.284;10.158;2023-05-29T09:03:29;7.28;;;2.10;;
5674;SDS011;2860;54.284;10.158;2023-05-29T09:05:58;6.38;;;1.83;;
5674;SDS011;2860;54.284;10.158;2023-05-29T09:08:28;9.48;;;2.05;;
5674;SDS011;2860;54.284;10.158;2023-05-29T09:10:54;5.28;;;2.03;;
5674;SDS011;2860;54.284;10.158;2023-05-29T09:13:20;4.93;;;2.00;;
5674;SDS011;2860;54.284;10.158;2023-05-29T09:15:46;4.25;;;1.55;;
5674;SDS011;2860;54.284;10.158;2023-05-29T09:18:11;6.22;;;1.60;;
5674;SDS011;2860;54.284;10.158;2023-05-29T09:20:37;6.88;;;2.08;;
5674;SDS011;2860;54.284;10.158;2023-05-29T09:25:30;4.53;;;2.25;;
5674;SDS011;2860;54.284;10.158;2023-05-29T09:28:00;3.10;;;1.60;;
5674;SDS011;2860;54.284;10.158;2023-05-29T09:33:07;5.63;;;1.83;;
5674;SDS011;2860;54.284;10.158;2023-05-29T09:35:35;10.13;;;2.13;;
5674;SDS011;2860;54.284;10.158;2023-05-29T09:38:14;2.17;;;1.58;;
5674;SDS011;2860;54.284;10.158;2023-05-29T09:40:41;5.07;;;1.85;;
5674;SDS011;2860;54.284;10.158;2023-05-29T09:45:41;7.35;;;1.92;;
5674;SDS011;2860;54.284;10.158;2023-05-29T09:48:12;8.82;;;2.05;;
5674;SDS011;2860;54.284;10.158;2023-05-29T09:50:40;3.70;;;1.50;;
5674;SDS011;2860;54.284;10.158;2023-05-29T09:53:19;5.10;;;2.15;;
5674;SDS011;2860;54.284;10.158;2023-05-29T09:55:48;5.10;;;2.20;;
5674;SDS011;2860;54.284;10.158;2023-05-29T09:58:15;2.90;;;1.50;;
5674;SDS011;2860;54.284;10.158;2023-05-29T10:00:43;4.72;;;2.05;;
5674;SDS011;2860;54.284;10.158;2023-05-29T10:03:09;7.25;;;1.85;;
5674;SDS011;2860;54.284;10.158;2023-05-29T10:05:37;7.40;;;1.90;;
5674;SDS011;2860;54.284;10.158;2023-05-29T10:08:05;6.50;;;1.77;;
5674;SDS011;2860;54.284;10.158;2023-05-29T10:10:33;7.78;;;2.28;;
5674;SDS011;2860;54.284;10.158;2023-05-29T10:13:00;6.72;;;2.08;;
5674;SDS011;2860;54.284;10.158;2023-05-29T10:15:28;6.93;;;2.08;;
5674;SDS011;2860;54.284;10.158;2023-05-29T10:18:05;6.72;;;2.47;;
5674;SDS011;2860;54.284;10.158;2023-05-29T10:20:38;2.08;;;1.50;;
5674;SDS011;2860;54.284;10.158;2023-05-29T10:23:03;5.10;;;1.60;;
5674;SDS011;2860;54.284;10.158;2023-05-29T10:25:31;5.57;;;1.85;;
5674;SDS011;2860;54.284;10.158;2023-05-29T10:27:58;11.02;;;1.90;;
5674;SDS011;2860;54.284;10.158;2023-05-29T10:30:28;4.47;;;1.63;;
5674;SDS011;2860;54.284;10.158;2023-05-29T10:33:22;4.38;;;1.20;;
5674;SDS011;2860;54.284;10.158;2023-05-29T10:36:01;4.97;;;1.60;;
5674;SDS011;2860;54.284;10.158;2023-05-29T10:38:40;7.25;;;2.83;;
5674;SDS011;2860;54.284;10.158;2023-05-29T10:43:51;6.07;;;1.85;;
5674;SDS011;2860;54.284;10.158;2023-05-29T10:46:20;4.57;;;1.85;;
5674;SDS011;2860;54.284;10.158;2023-05-29T10:48:47;3.28;;;1.60;;
5674;SDS011;2860;54.284;10.158;2023-05-29T10:51:24;6.65;;;2.17;;
5674;SDS011;2860;54.284;10.158;2023-05-29T10:53:51;5.93;;;2.08;;
5674;SDS011;2860;54.284;10.158;2023-05-29T10:56:21;3.25;;;1.73;;
5674;SDS011;2860;54.284;10.158;2023-05-29T10:58:55;3.65;;;2.03;;
5674;SDS011;2860;54.284;10.158;2023-05-29T11:01:26;5.13;;;1.52;;
5674;SDS011;2860;54.284;10.158;2023-05-29T11:03:54;5.25;;;1.70;;
5674;SDS011;2860;54.284;10.158;2023-05-29T11:06:40;3.55;;;1.58;;
5674;SDS011;2860;54.284;10.158;2023-05-29T11:09:05;6.30;;;1.50;;
5674;SDS011;2860;54.284;10.158;2023-05-29T11:12:08;2.20;;;1.60;;
5674;SDS011;2860;54.284;10.158;2023-05-29T11:15:01;5.40;;;1.77;;
5674;SDS011;2860;54.284;10.158;2023-05-29T11:17:29;4.53;;;1.70;;
5674;SDS011;2860;54.284;10.158;2023-05-29T11:20:10;7.05;;;1.92;;
5674;SDS011;2860;54.284;10.158;2023-05-29T11:25:14;4.93;;;1.70;;
5674;SDS011;2860;54.284;10.158;2023-05-29T11:27:40;3.80;;;1.67;;
5674;SDS011;2860;54.284;10.158;2023-05-29T11:30:08;3.03;;;1.30;;
5674;SDS011;2860;54.284;10.158;2023-05-29T11:32:34;4.30;;;1.50;;
5674;SDS011;2860;54.284;10.158;2023-05-29T11:35:04;4.57;;;1.70;;
5674;SDS011;2860;54.284;10.158;2023-05-29T11:37:34;5.53;;;1.45;;
5674;SDS011;2860;54.284;10.158;2023-05-29T11:40:02;4.88;;;2.00;;
5674;SDS011;2860;54.284;10.158;2023-05-29T11:42:30;3.65;;;1.60;;
5674;SDS011;2860;54.284;10.158;2023-05-29T11:45:18;2.42;;;1.58;;
5674;SDS011;2860;54.284;10.158;2023-05-29T11:47:51;5.03;;;1.73;;
5674;SDS011;2860;54.284;10.158;2023-05-29T11:50:21;7.45;;;1.80;;
5674;SDS011;2860;54.284;10.158;2023-05-29T11:52:48;4.20;;;1.95;;
5674;SDS011;2860;54.284;10.158;2023-05-29T11:55:13;5.55;;;1.98;;
5674;SDS011;2860;54.284;10.158;2023-05-29T11:57:39;4.60;;;1.55;;
5674;SDS011;2860;54.284;10.158;2023-05-29T12:00:05;3.05;;;1.60;;
5674;SDS011;2860;54.284;10.158;2023-05-29T12:02:33;4.40;;;1.85;;
5674;SDS011;2860;54.284;10.158;2023-05-29T12:05:04;7.05;;;2.00;;
5674;SDS011;2860;54.284;10.158;2023-05-29T12:07:32;9.10;;;1.80;;
5674;SDS011;2860;54.284;10.158;2023-05-29T12:10:08;4.28;;;1.45;;
5674;SDS011;2860;54.284;10.158;2023-05-29T12:12:35;3.63;;;1.30;;
5674;SDS011;2860;54.284;10.158;2023-05-29T12:15:00;8.95;;;2.08;;
5674;SDS011;2860;54.284;10.158;2023-05-29T12:17:30;3.80;;;1.88;;
5674;SDS011;2860;54.284;10.158;2023-05-29T12:19:56;4.43;;;1.83;;
5674;SDS011;2860;54.284;10.158;2023-05-29T12:22:34;2.90;;;1.15;;
5674;SDS011;2860;54.284;10.158;2023-05-29T12:25:07;7.60;;;2.28;;
5674;SDS011;2860;54.284;10.158;2023-05-29T12:27:38;9.80;;;2.15;;
5674;SDS011;2860;54.284;10.158;2023-05-29T12:30:08;4.15;;;1.52;;
5674;SDS011;2860;54.284;10.158;2023-05-29T12:32:36;5.13;;;1.65;;
5674;SDS011;2860;54.284;10.158;2023-05-29T12:35:15;6.95;;;2.42;;
5674;SDS011;2860;54.284;10.158;2023-05-29T12:37:55;6.72;;;1.55;;
5674;SDS011;2860;54.284;10.158;2023-05-29T12:40:23;4.35;;;1.60;;
5674;SDS011;2860;54.284;10.158;2023-05-29T12:42:54;2.95;;;1.33;;
5674;SDS011;2860;54.284;10.158;2023-05-29T12:45:21;3.90;;;1.55;;
5674;SDS011;2860;54.284;10.158;2023-05-29T12:47:51;6.25;;;1.60;;
5674;SDS011;2860;54.284;10.158;2023-05-29T12:50:21;6.30;;;2.55;;
5674;SDS011;2860;54.284;10.158;2023-05-29T12:53:04;2.58;;;1.60;;
5674;SDS011;2860;54.284;10.158;2023-05-29T12:55:31;9.13;;;1.55;;
5674;SDS011;2860;54.284;10.158;2023-05-29T12:57:58;3.97;;;1.52;;
5674;SDS011;2860;54.284;10.158;2023-05-29T13:00:24;5.03;;;1.50;;
5674;SDS011;2860;54.284;10.158;2023-05-29T13:02:50;5.47;;;1.80;;
5674;SDS011;2860;54.284;10.158;2023-05-29T13:05:16;5.18;;;1.73;;
5674;SDS011;2860;54.284;10.158;2023-05-29T13:07:44;4.70;;;1.73;;
5674;SDS011;2860;54.284;10.158;2023-05-29T13:10:11;7.10;;;2.08;;
5674;SDS011;2860;54.284;10.158;2023-05-29T13:12:37;6.22;;;1.65;;
5674;SDS011;2860;54.284;10.158;2023-05-29T13:15:03;1.67;;;1.33;;
5674;SDS011;2860;54.284;10.158;2023-05-29T13:17:28;14.75;;;4.18;;
5674;SDS011;2860;54.284;10.158;2023-05-29T13:19:54;8.95;;;2.58;;
5674;SDS011;2860;54.284;10.158;2023-05-29T13:22:19;8.10;;;1.63;;
5674;SDS011;2860;54.284;10.158;2023-05-29T13:24:45;5.28;;;4.40;;
5674;SDS011;2860;54.284;10.158;2023-05-29T13:27:11;7.55;;;2.15;;
5674;SDS011;2860;54.284;10.158;2023-05-29T13:29:38;3.33;;;1.63;;
5674;SDS011;2860;54.284;10.158;2023-05-29T13:32:05;1.88;;;1.50;;
5674;SDS011;2860;54.284;10.158;2023-05-29T13:34:31;4.68;;;1.98;;
5674;SDS011;2860;54.284;10.158;2023-05-29T13:36:57;6.35;;;1.42;;
5674;SDS011;2860;54.284;10.158;2023-05-29T13:39:23;3.20;;;1.52;;
5674;SDS011;2860;54.284;10.158;2023-05-29T13:41:49;3.10;;;1.60;;
5674;SDS011;2860;54.284;10.158;2023-05-29T13:44:15;3.25;;;1.70;;
5674;SDS011;2860;54.284;10.158;2023-05-29T13:46:41;5.25;;;1.65;;
5674;SDS011;2860;54.284;10.158;2023-05-29T13:49:06;5.57;;;1.75;;
5674;SDS011;2860;54.284;10.158;2023-05-29T13:51:35;3.25;;;1.58;;
5674;SDS011;2860;54.284;10.158;2023-05-29T13:54:01;1.95;;;1.20;;
5674;SDS011;2860;54.284;10.158;2023-05-29T13:56:28;6.55;;;1.88;;
5674;SDS011;2860;54.284;10.158;2023-05-29T13:58:54;6.00;;;1.85;;
5674;SDS011;2860;54.284;10.158;2023-05-29T14:01:19;7.00;;;1.48;;
5674;SDS011;2860;54.284;10.158;2023-05-29T14:03:46;3.42;;;1.50;;
5674;SDS011;2860;54.284;10.158;2023-05-29T14:06:11;6.82;;;2.20;;
5674;SDS011;2860;54.284;10.158;2023-05-29T14:08:37;2.78;;;1.63;;
5674;SDS011;2860;54.284;10.158;2023-05-29T14:11:02;4.75;;;1.75;;
5674;SDS011;2860;54.284;10.158;2023-05-29T14:13:28;2.25;;;1.73;;
5674;SDS011;2860;54.284;10.158;2023-05-29T14:15:54;5.80;;;4.10;;
5674;SDS011;2860;54.284;10.158;2023-05-29T14:18:21;2.83;;;1.75;;
5674;SDS011;2860;54.284;10.158;2023-05-29T14:20:46;2.53;;;1.70;;
5674;SDS011;2860;54.284;10.158;2023-05-29T14:23:13;3.88;;;1.58;;
5674;SDS011;2860;54.284;10.158;2023-05-29T14:25:40;3.90;;;1.52;;
5674;SDS011;2860;54.284;10.158;2023-05-29T14:28:06;3.95;;;1.50;;
5674;SDS011;2860;54.284;10.158;2023-05-29T14:30:32;3.67;;;1.40;;
5674;SDS011;2860;54.284;10.158;2023-05-29T14:32:58;2.45;;;1.90;;
5674;SDS011;2860;54.284;10.158;2023-05-29T14:35:23;4.50;;;1.10;;
5674;SDS011;2860;54.284;10.158;2023-05-29T14:37:49;2.90;;;1.48;;
5674;SDS011;2860;54.284;10.158;2023-05-29T14:40:14;2.47;;;1.40;;
5674;SDS011;2860;54.284;10.158;2023-05-29T14:42:40;4.30;;;1.70;;
5674;SDS011;2860;54.284;10.158;2023-05-29T14:45:05;6.05;;;1.42;;
5674;SDS011;2860;54.284;10.158;2023-05-29T14:47:32;3.97;;;1.50;;
5674;SDS011;2860;54.284;10.158;2023-05-29T14:49:58;2.67;;;1.23;;
5674;SDS011;2860;54.284;10.158;2023-05-29T14:52:23;2.67;;;1.58;;
5674;SDS011;2860;54.284;10.158;2023-05-29T14:54:49;5.60;;;2.08;;
5674;SDS011;2860;54.284;10.158;2023-05-29T14:57:14;7.38;;;4.22;;
5674;SDS011;2860;54.284;10.158;2023-05-29T14:59:40;6.90;;;3.10;;
5674;SDS011;2860;54.284;10.158;2023-05-29T15:02:05;8.27;;;3.08;;
5674;SDS011;2860;54.284;10.158;2023-05-29T15:04:31;3.70;;;2.10;;
5674;SDS011;2860;54.284;10.158;2023-05-29T15:06:56;4.15;;;1.48;;
5674;SDS011;2860;54.284;10.158;2023-05-29T15:09:22;4.70;;;1.90;;
5674;SDS011;2860;54.284;10.158;2023-05-29T15:11:48;2.58;;;1.30;;
5674;SDS011;2860;54.284;10.158;2023-05-29T15:14:13;4.50;;;1.92;;